메인 페이지
METAR-TAF:

METAR-TAF

공항 :

볼고그라드, 러시아

위도: 48-47N, 경도: 044-22E, 고도: 145m

현재 날씨관측

예보는 32분 전, 17:00시(UTC)에 발표되었습니다.
북서6kt
온도 13°C
습도 54%
기압 1024 hPa
시정 10km 이상
1500m 미만 상공 구름 및 적란운 없음

METAR: URWW 171700Z 32003MPS CAVOK 13/04 Q1024 R24/010070 NOSIG

시각: 20:32 (17:32 UTC)

예보

예보는 3 시간 34분 전, 13:58시(UTC)에 발표되었습니다.
예보 대상 시간: 17일 15시부터 17일 24시까지 (UTC)
북서6kt, 순간 최대 풍속 16kt
시정 10km 이상
고도 3000ft 상공 구름 보통
일시적
17일 15시부터 17일 18시까지 (UTC)
서북서6kt, 순간 최대 풍속 16kt
전환 중
17일 19시부터 17일 21시까지 (UTC)
시정: 3100m
고도 1100ft 상공 구름 많음
박무

TAF: URWW 171358Z 1715/1724 32003G08MPS 9999 SCT030 TEMPO 1715/1718 29003G08MPS BECMG 1719/1721 3100 BR BKN011

4,000개 이상의 공항 관측 자료 및 예보 (METAR 및 TAF 보고).

지도상에서 검색 가능한 기상관측소가 노란 점과 빨간 점으로 표시되어 있습니다.

기상관측소 명을 보려면 표시 위로 마우스를 이동하세요.

날씨 관측과 예보를 보려면 클릭하세요.

지도 변경 : 확대하려면 엑스 표시가 있는 녹색 버튼, 축소하려면 빼기 표시가 있는 녹색 버튼, 다음 페이지의 지도를 보려면 녹색 화살표를 클릭하세요.


METAR-TAF: